Time;durP1;ratioP1;P1;durP2;ratioP2;P2;SDS_P1;SDS_P2;PMS_P1;PMS_P2;Temp;Humidity;BMP_temperature;BMP_pressure;BME280_temperature;BME280_humidity;BME280_pressure;Samples;Min_cycle;Max_cycle;Signal;HPM_P1;HPM_P2
2021/07/14 00:02:07;;;;;;;11.85;8.32;;;;;;;20.55;100.00;99923.13;4846689;29;20266;-84
2021/07/14 00:04:35;;;;;;;14.27;8.63;;;;;;;20.58;100.00;99917.66;4846085;29;20117;-84
2021/07/14 00:07:01;;;;;;;12.23;8.35;;;;;;;20.56;100.00;99913.44;4862839;29;20478;-83
2021/07/14 00:09:27;;;;;;;18.02;8.43;;;;;;;20.57;100.00;99909.88;4862521;29;20026;-83
2021/07/14 00:12:00;;;;;;;10.75;7.25;;;;;;;20.57;100.00;99905.44;4846183;29;20463;-83
2021/07/14 00:14:35;;;;;;;12.10;8.47;;;;;;;20.45;100.00;99904.47;4863243;29;20025;-83
2021/07/14 00:17:20;;;;;;;11.88;7.80;;;;;;;20.57;100.00;99897.53;4846042;29;20506;-83
2021/07/14 00:22:33;;;;;;;10.35;8.15;;;;;;;20.49;100.00;99909.53;4862769;29;20093;-83
2021/07/14 00:25:00;;;;;;;10.32;7.43;;;;;;;20.41;100.00;99908.28;4845846;29;20025;-83
2021/07/14 00:27:25;;;;;;;11.20;7.55;;;;;;;20.49;100.00;99906.88;4845505;29;20085;-83
2021/07/14 00:29:56;;;;;;;11.95;8.45;;;;;;;20.50;100.00;99900.66;4862026;29;20029;-83
2021/07/14 00:32:23;;;;;;;11.65;8.05;;;;;;;20.45;100.00;99901.00;4845441;29;20498;-84
2021/07/14 00:34:53;;;;;;;13.15;8.88;;;;;;;20.35;100.00;99895.53;4845446;29;20483;-84
2021/07/14 00:37:18;;;;;;;16.05;8.63;;;;;;;20.41;100.00;99894.22;4862028;29;20375;-84
2021/07/14 00:39:55;;;;;;;10.00;7.68;;;;;;;20.39;100.00;99888.25;4845395;29;20032;-84
2021/07/14 00:42:22;;;;;;;15.63;7.82;;;;;;;20.37;100.00;99888.34;4861432;29;20061;-84
2021/07/14 00:44:52;;;;;;;12.18;8.13;;;;;;;20.40;100.00;99882.03;4844961;29;20513;-84
2021/07/14 00:47:31;;;;;;;13.25;8.18;;;;;;;20.34;100.00;99877.19;4845980;29;20029;-84
2021/07/14 00:49:57;;;;;;;17.30;8.75;;;;;;;20.35;100.00;99876.22;4845979;29;20054;-84
2021/07/14 00:52:23;;;;;;;13.80;8.00;;;;;;;20.39;100.00;99873.28;4861486;29;20029;-84
2021/07/14 00:54:48;;;;;;;10.68;8.40;;;;;;;20.34;100.00;99870.13;4845232;29;20109;-84
2021/07/14 00:57:18;;;;;;;11.50;8.48;;;;;;;20.29;100.00;99866.13;4845545;29;20104;-84
2021/07/14 00:59:44;;;;;;;10.23;8.38;;;;;;;20.31;100.00;99864.22;4862509;29;20017;-84
2021/07/14 01:02:13;;;;;;;12.20;8.10;;;;;;;20.31;100.00;99859.78;4845197;29;20028;-84
2021/07/14 01:04:46;;;;;;;10.85;7.72;;;;;;;20.31;100.00;99857.16;4861848;29;20029;-84
2021/07/14 01:07:19;;;;;;;11.80;8.27;;;;;;;20.16;100.00;99852.97;4845602;29;20405;-84
2021/07/14 01:10:03;;;;;;;12.52;8.75;;;;;;;20.17;100.00;99857.31;4845840;29;20029;-84
2021/07/14 01:12:52;;;;;;;12.57;8.95;;;;;;;20.24;100.00;99842.75;4846159;29;20444;-84
2021/07/14 01:15:19;;;;;;;10.93;8.63;;;;;;;20.22;100.00;99863.06;4862357;29;20490;-84
2021/07/14 01:17:50;;;;;;;14.20;9.25;;;;;;;20.19;100.00;99855.38;4862793;29;20084;-84
2021/07/14 01:20:26;;;;;;;11.77;8.80;;;;;;;20.29;100.00;99861.72;4845389;29;20036;-82
2021/07/14 01:22:51;;;;;;;13.38;9.57;;;;;;;20.16;100.00;99852.97;4862225;29;20029;-82
2021/07/14 01:25:40;;;;;;;10.77;8.73;;;;;;;20.21;100.00;99864.03;4845556;29;20029;-82
2021/07/14 01:28:09;;;;;;;9.80;8.25;;;;;;;20.32;100.00;99864.13;4845075;29;20064;-82
2021/07/14 01:30:35;;;;;;;16.73;9.18;;;;;;;20.32;100.00;99861.50;4844997;29;20428;-82
2021/07/14 01:33:02;;;;;;;11.52;9.15;;;;;;;20.22;100.00;99863.06;4844757;29;20030;-82
2021/07/14 01:35:32;;;;;;;12.82;8.70;;;;;;;20.25;100.00;99865.50;4861441;29;20030;-82
2021/07/14 01:37:59;;;;;;;12.98;8.80;;;;;;;20.16;100.00;99860.88;4844870;29;20029;-82
2021/07/14 01:40:24;;;;;;;12.07;8.95;;;;;;;20.12;100.00;99867.31;4845328;29;20561;-82
2021/07/14 01:42:59;;;;;;;13.23;9.35;;;;;;;20.10;100.00;99875.28;4845608;29;20041;-82
2021/07/14 01:45:29;;;;;;;13.30;9.57;;;;;;;20.11;100.00;99866.47;4845311;29;20022;-82
2021/07/14 01:47:56;;;;;;;13.50;9.13;;;;;;;20.18;100.00;99858.97;4845367;29;20387;-82
2021/07/14 01:50:23;;;;;;;17.80;8.60;;;;;;;20.13;100.00;99850.53;4845412;29;20030;-82
2021/07/14 01:52:51;;;;;;;14.77;9.27;;;;;;;20.20;100.00;99849.19;4845004;29;20032;-82
2021/07/14 01:55:17;;;;;;;14.43;9.15;;;;;;;20.13;100.00;99846.13;4862301;29;20048;-82
2021/07/14 01:57:44;;;;;;;11.75;9.77;;;;;;;20.10;100.00;99845.50;4865910;29;20045;-82
2021/07/14 02:00:13;;;;;;;10.88;8.38;;;;;;;20.11;100.00;99840.13;4849265;29;20033;-81
2021/07/14 02:02:49;;;;;;;12.70;8.38;;;;;;;20.05;100.00;99842.34;4850042;29;20108;-81
2021/07/14 02:05:14;;;;;;;14.15;8.93;;;;;;;20.19;100.00;99842.22;4849085;29;20141;-81
2021/07/14 02:07:40;;;;;;;12.40;9.00;;;;;;;20.08;100.00;99840.34;4850138;29;20487;-81
2021/07/14 02:10:06;;;;;;;11.63;9.15;;;;;;;20.16;100.00;99831.91;4866625;29;20048;-81
2021/07/14 02:12:40;;;;;;;11.18;8.73;;;;;;;20.10;100.00;99830.53;4866256;29;20085;-81
2021/07/14 02:15:10;;;;;;;13.13;9.27;;;;;;;20.01;100.00;99831.16;4851203;29;20034;-81
2021/07/14 02:17:55;;;;;;;11.85;8.95;;;;;;;20.08;100.00;99837.72;4851132;29;20021;-81
2021/07/14 02:20:21;;;;;;;14.52;9.50;;;;;;;20.03;100.00;99833.72;4850668;29;20081;-81
2021/07/14 02:22:48;;;;;;;12.00;8.65;;;;;;;20.11;100.00;99840.13;4848914;29;20443;-81
2021/07/14 02:25:15;;;;;;;11.55;9.23;;;;;;;20.04;100.00;99845.91;4849191;29;20093;-81
2021/07/14 02:27:41;;;;;;;11.00;9.45;;;;;;;19.99;100.00;99836.56;4850652;29;20133;-81
2021/07/14 02:30:19;;;;;;;14.27;8.63;;;;;;;20.11;100.00;99839.28;4867779;29;20036;-81
2021/07/14 02:33:04;;;;;;;11.43;9.00;;;;;;;20.08;100.00;99842.97;4850874;29;20053;-81
2021/07/14 02:35:30;;;;;;;11.07;8.75;;;;;;;19.97;100.00;99843.69;4867515;29;20037;-81
2021/07/14 02:38:07;;;;;;;11.93;8.60;;;;;;;19.92;100.00;99835.31;4867991;29;20033;-81
2021/07/14 02:40:45;;;;;;;12.98;9.40;;;;;;;19.95;100.00;99835.09;4851239;29;20039;-81
2021/07/14 02:43:15;;;;;;;13.52;9.55;;;;;;;19.98;100.00;99819.09;4851171;29;20048;-81
2021/07/14 02:45:43;;;;;;;12.23;9.02;;;;;;;19.93;100.00;99823.81;4867349;29;20434;-80
2021/07/14 02:48:10;;;;;;;10.13;8.98;;;;;;;19.86;100.00;99819.94;4867230;29;20034;-81
2021/07/14 02:50:36;;;;;;;14.32;9.43;;;;;;;19.80;100.00;99816.84;4850643;29;20058;-81
2021/07/14 02:53:11;;;;;;;13.43;9.05;;;;;;;19.85;100.00;99817.38;4867398;29;20057;-81
2021/07/14 02:55:41;;;;;;;10.57;8.50;;;;;;;19.81;100.00;99813.28;4867858;29;20554;-81
2021/07/14 02:58:08;;;;;;;12.07;8.98;;;;;;;19.81;100.00;99814.13;4868926;29;20037;-81
2021/07/14 03:00:38;;;;;;;14.40;9.80;;;;;;;19.83;100.00;99812.25;4869953;29;20062;-81
2021/07/14 03:03:08;;;;;;;13.05;9.75;;;;;;;19.84;100.00;99815.72;4868750;29;20085;-81
2021/07/14 03:05:34;;;;;;;14.88;8.38;;;;;;;19.83;100.00;99801.72;4852398;29;20014;-81
2021/07/14 03:08:03;;;;;;;12.07;9.07;;;;;;;19.86;100.00;99804.13;4869063;29;20108;-81
2021/07/14 03:10:29;;;;;;;12.52;9.13;;;;;;;19.86;100.00;99806.78;4868769;29;20036;-81
2021/07/14 03:12:57;;;;;;;15.60;9.35;;;;;;;19.83;100.00;99800.84;4850777;29;20025;-81
2021/07/14 03:15:24;;;;;;;13.10;9.45;;;;;;;19.67;100.00;99798.44;4851779;29;20026;-81
2021/07/14 03:17:51;;;;;;;12.95;9.88;;;;;;;19.71;100.00;99802.56;4851351;29;20025;-81
2021/07/14 03:20:17;;;;;;;13.02;9.88;;;;;;;19.74;100.00;99799.72;4850276;29;20029;-81
2021/07/14 03:22:45;;;;;;;11.48;8.85;;;;;;;19.74;100.00;99802.34;4867130;29;20030;-81
2021/07/14 03:25:11;;;;;;;13.77;9.50;;;;;;;19.75;100.00;99793.50;4851134;29;20393;-81
2021/07/14 03:27:39;;;;;;;11.23;9.30;;;;;;;19.76;100.00;99800.44;4867725;29;20085;-82
2021/07/14 03:30:05;;;;;;;13.63;11.10;;;;;;;19.77;100.00;99802.13;4851842;29;20037;-83
2021/07/14 03:32:31;;;;;;;12.80;9.40;;;;;;;19.74;100.00;99808.44;4851013;29;20021;-83
2021/07/14 03:34:56;;;;;;;11.77;9.10;;;;;;;19.71;100.00;99816.56;4850848;29;20041;-83
2021/07/14 03:37:22;;;;;;;15.13;9.27;;;;;;;19.68;100.00;99827.28;4850714;29;20074;-83
2021/07/14 03:39:48;;;;;;;11.80;8.85;;;;;;;19.63;100.00;99831.97;4850995;29;20029;-83
2021/07/14 03:42:17;;;;;;;12.35;10.05;;;;;;;19.60;100.00;99836.59;4865242;29;20037;-83
2021/07/14 03:44:47;;;;;;;16.85;10.30;;;;;;;19.74;100.00;99836.56;4848324;29;20120;-83
2021/07/14 03:47:16;;;;;;;11.48;9.65;;;;;;;19.73;100.00;99834.84;4866097;29;20105;-83
2021/07/14 03:49:43;;;;;;;13.05;9.75;;;;;;;19.68;100.00;99845.69;4867085;29;20041;-83
2021/07/14 03:52:09;;;;;;;10.63;8.88;;;;;;;19.72;100.00;99848.97;4850380;29;20077;-83
2021/07/14 03:54:37;;;;;;;13.45;9.52;;;;;;;19.54;100.00;99864.16;4865966;29;20479;-83
2021/07/14 03:57:04;;;;;;;13.55;9.95;;;;;;;19.46;100.00;99866.47;4849727;29;20034;-83
2021/07/14 03:59:30;;;;;;;14.35;10.25;;;;;;;19.45;100.00;99857.72;4866494;29;20052;-83
2021/07/14 04:01:56;;;;;;;13.48;10.32;;;;;;;19.50;100.00;99860.88;4850203;29;20029;-83
2021/07/14 04:04:22;;;;;;;13.90;9.82;;;;;;;19.51;100.00;99870.47;4866622;29;20064;-83
2021/07/14 04:06:55;;;;;;;13.85;9.75;;;;;;;19.49;100.00;99864.47;4850383;29;20029;-83
2021/07/14 04:09:26;;;;;;;12.27;9.60;;;;;;;19.63;100.00;99867.97;4850359;29;20025;-83
2021/07/14 04:12:00;;;;;;;10.80;9.10;;;;;;;19.65;100.00;99859.06;4866171;29;20078;-83
2021/07/14 04:14:27;;;;;;;11.75;8.65;;;;;;;19.69;100.00;99865.78;4864473;29;20033;-83
2021/07/14 04:16:54;;;;;;;13.80;9.63;;;;;;;19.67;100.00;99857.16;4864897;29;20466;-83
2021/07/14 04:19:19;;;;;;;13.82;8.85;;;;;;;19.70;100.00;99861.38;4847819;29;20089;-83
2021/07/14 04:21:45;;;;;;;13.18;9.02;;;;;;;19.62;100.00;99867.13;4849092;29;20025;-83
2021/07/14 04:24:11;;;;;;;11.98;9.20;;;;;;;19.66;100.00;99873.88;4849409;29;20554;-83
2021/07/14 04:26:36;;;;;;;10.88;8.80;;;;;;;19.71;100.00;99865.72;4849481;29;20086;-83
2021/07/14 04:29:04;;;;;;;12.50;8.93;;;;;;;19.73;100.00;99869.06;4866391;29;20026;-83
2021/07/14 04:31:30;;;;;;;12.50;9.45;;;;;;;19.70;100.00;99880.63;4849512;29;20116;-83
2021/07/14 04:33:55;;;;;;;15.23;9.48;;;;;;;19.67;100.00;99882.63;4849188;29;20033;-83
2021/07/14 04:36:21;;;;;;;15.88;9.35;;;;;;;19.68;100.00;99882.53;4849673;29;20016;-84
2021/07/14 04:38:46;;;;;;;15.63;9.65;;;;;;;19.72;100.00;99888.44;4845416;29;20035;-84
2021/07/14 04:41:11;;;;;;;16.95;9.13;;;;;;;19.77;100.00;99883.72;4845552;29;20034;-83
2021/07/14 04:43:36;;;;;;;13.32;10.13;;;;;;;19.63;100.00;99883.75;4844999;29;20065;-83
2021/07/14 04:46:02;;;;;;;10.65;9.30;;;;;;;19.68;100.00;99879.06;4845365;29;20022;-83
2021/07/14 04:48:30;;;;;;;13.48;9.05;;;;;;;19.68;100.00;99876.44;4845318;29;20482;-83
2021/07/14 04:50:56;;;;;;;13.95;10.13;;;;;;;19.64;100.00;99874.91;4861931;29;20033;-83
2021/07/14 04:53:21;;;;;;;12.55;10.20;;;;;;;19.68;100.00;99881.69;4844923;29;20119;-84
2021/07/14 04:55:46;;;;;;;14.27;10.30;;;;;;;19.79;100.00;99871.28;4844844;29;20077;-84
2021/07/14 04:58:12;;;;;;;15.00;10.48;;;;;;;19.80;100.00;99867.72;4861705;29;20414;-84
2021/07/14 05:00:37;;;;;;;13.90;9.60;;;;;;;19.72;100.00;99867.38;4845092;29;20029;-83
2021/07/14 05:03:03;;;;;;;15.02;10.40;;;;;;;19.76;100.00;99861.78;4862017;29;20030;-83
2021/07/14 05:05:28;;;;;;;12.63;9.45;;;;;;;19.69;100.00;99872.84;4845480;29;20018;-83
2021/07/14 05:07:57;;;;;;;15.75;10.00;;;;;;;19.68;100.00;99881.69;4845272;29;20039;-83
2021/07/14 05:10:28;;;;;;;14.18;10.18;;;;;;;19.70;100.00;99872.72;4845238;29;20467;-83
2021/07/14 05:12:53;;;;;;;12.93;10.23;;;;;;;19.77;100.00;99860.88;4864490;29;20089;-83
2021/07/14 05:15:19;;;;;;;16.17;10.45;;;;;;;19.67;100.00;99861.56;4862582;29;20026;-84
2021/07/14 05:17:44;;;;;;;18.58;10.13;;;;;;;19.77;100.00;99865.28;4862970;29;20029;-83
2021/07/14 05:20:09;;;;;;;22.25;10.38;;;;;;;19.83;100.00;99861.38;4845974;29;20029;-83
2021/07/14 05:22:35;;;;;;;16.45;10.88;;;;;;;19.76;100.00;99863.59;4846056;29;20028;-83
2021/07/14 05:25:01;;;;;;;12.55;10.38;;;;;;;19.76;100.00;99868.84;4862929;29;20029;-83
2021/07/14 05:27:26;;;;;;;15.45;10.88;;;;;;;19.78;100.00;99869.59;4862836;29;20041;-84
2021/07/14 05:29:52;;;;;;;14.07;10.30;;;;;;;19.84;100.00;99870.97;4849970;29;20029;-83
2021/07/14 05:32:25;;;;;;;14.32;10.25;;;;;;;19.88;100.00;99865.38;4868067;29;20449;-82
2021/07/14 05:34:50;;;;;;;14.90;11.30;;;;;;;19.88;100.00;99861.91;4866906;29;20025;-84
2021/07/14 05:37:16;;;;;;;14.13;10.43;;;;;;;19.81;100.00;99856.22;4865378;29;20037;-83
2021/07/14 05:39:41;;;;;;;13.65;10.93;;;;;;;19.74;100.00;99857.59;4865382;29;20112;-85
2021/07/14 05:42:06;;;;;;;12.20;9.82;;;;;;;19.73;100.00;99869.06;4887474;23;20034;-83
2021/07/14 05:44:32;;;;;;;14.90;11.60;;;;;;;19.81;100.00;99868.56;4849712;29;20037;-84
2021/07/14 05:46:58;;;;;;;16.27;10.57;;;;;;;19.79;100.00;99868.66;4855849;29;20032;-84
2021/07/14 05:49:24;;;;;;;15.07;10.75;;;;;;;19.75;100.00;99868.00;4851641;29;20124;-85
2021/07/14 05:51:49;;;;;;;17.23;11.90;;;;;;;19.63;100.00;99873.22;4849317;29;20098;-84
2021/07/14 05:54:14;;;;;;;15.82;11.07;;;;;;;19.64;100.00;99869.66;4848969;29;20060;-84
2021/07/14 05:56:40;;;;;;;18.38;11.55;;;;;;;19.69;100.00;99872.84;4848803;29;20025;-85
2021/07/14 05:59:05;;;;;;;16.00;13.13;;;;;;;19.62;100.00;99876.81;4847806;29;20055;-84
2021/07/14 06:01:30;;;;;;;16.83;12.40;;;;;;;19.63;100.00;99873.22;4847898;29;20071;-85
2021/07/14 06:03:56;;;;;;;16.58;11.75;;;;;;;19.44;100.00;99874.44;4847944;29;20029;-87
2021/07/14 06:06:21;;;;;;;15.35;12.45;;;;;;;19.52;100.00;99866.06;4864893;29;20030;-83
2021/07/14 06:08:46;;;;;;;14.82;11.98;;;;;;;19.57;100.00;99869.22;4847957;29;20394;-83
2021/07/14 06:11:12;;;;;;;15.43;12.02;;;;;;;19.70;100.00;99866.63;4864244;29;20026;-84
2021/07/14 06:13:37;;;;;;;16.83;12.48;;;;;;;19.83;100.00;99870.16;4847797;29;20070;-84
2021/07/14 06:16:03;;;;;;;13.35;11.88;;;;;;;19.54;100.00;99866.78;4847523;29;20124;-84
2021/07/14 06:18:28;;;;;;;14.27;11.68;;;;;;;19.70;100.00;99866.63;4847622;29;20032;-84
2021/07/14 06:20:54;;;;;;;14.80;11.98;;;;;;;19.64;100.00;99869.66;4847410;29;20033;-84
2021/07/14 06:23:19;;;;;;;17.75;12.02;;;;;;;19.58;100.00;99870.91;4847608;29;20116;-84
2021/07/14 06:25:45;;;;;;;13.88;11.45;;;;;;;19.65;100.00;99871.38;4847714;29;20063;-85
2021/07/14 06:28:13;;;;;;;17.00;12.98;;;;;;;19.49;100.00;99869.75;4848241;29;20078;-84
2021/07/14 06:30:47;;;;;;;16.20;11.32;;;;;;;19.61;100.00;99859.31;4847453;29;20399;-85
2021/07/14 06:33:12;;;;;;;;;;;;;;;19.58;100.00;99860.41;4847762;29;20033;-85
2021/07/14 06:35:38;;;;;;;17.65;12.57;;;;;;;19.47;100.00;99858.47;4847205;29;19919;-85
2021/07/14 06:38:04;;;;;;;14.05;12.10;;;;;;;19.54;100.00;99843.94;4863808;29;20461;-86
2021/07/14 06:40:30;;;;;;;16.10;12.65;;;;;;;19.51;100.00;99846.78;4863577;29;20394;-86
2021/07/14 06:42:56;;;;;;;20.05;13.77;;;;;;;19.45;100.00;99846.34;4847061;29;20029;-86
2021/07/14 06:45:23;;;;;;;16.33;13.65;;;;;;;19.49;100.00;99834.72;4864149;29;20033;-86
2021/07/14 06:47:49;;;;;;;17.38;13.43;;;;;;;19.49;100.00;99832.06;4867055;29;20509;-85
2021/07/14 06:50:15;;;;;;;16.90;13.63;;;;;;;19.51;100.00;99817.00;4852115;29;20038;-85
2021/07/14 06:52:41;;;;;;;17.50;14.13;;;;;;;19.44;100.00;99811.31;4848204;29;20447;-85
2021/07/14 06:55:08;;;;;;;20.88;15.73;;;;;;;19.41;100.00;99808.91;4863350;29;20112;-85
2021/07/14 06:57:33;;;;;;;21.63;16.17;;;;;;;19.44;100.00;99794.72;4847070;29;20036;-85
2021/07/14 06:59:58;;;;;;;19.88;15.68;;;;;;;19.43;100.00;99793.88;4846962;29;20030;-84
2021/07/14 07:02:24;;;;;;;21.13;15.02;;;;;;;19.56;100.00;99788.63;4846452;29;20102;-84
2021/07/14 07:09:00;;;;;;;20.63;16.00;;;;;;;19.54;100.00;99801.03;4810168;29;20412;-84
2021/07/14 07:11:25;;;;;;;22.80;16.90;;;;;;;19.51;100.00;99790.72;4811617;29;20519;-83
2021/07/14 07:23:55;;;;;;;21.15;18.77;;;;;;;19.35;100.00;99790.91;4830145;29;20049;-84
2021/07/14 07:26:20;;;;;;;26.15;18.17;;;;;;;19.34;100.00;99781.34;4825397;29;20030;-84
2021/07/14 07:28:45;;;;;;;23.80;18.13;;;;;;;19.35;100.00;99788.28;4849426;29;20041;-84
2021/07/14 07:31:11;;;;;;;22.05;17.98;;;;;;;19.37;100.00;99789.03;4847195;29;20048;-84
2021/07/14 07:33:40;;;;;;;23.20;17.58;;;;;;;19.35;100.00;99788.28;4846393;29;20517;-84
2021/07/14 07:36:06;;;;;;;21.80;17.88;;;;;;;19.35;100.00;99784.81;4862904;29;20037;-85
2021/07/14 07:38:33;;;;;;;22.20;16.85;;;;;;;19.45;100.00;99785.88;4846124;29;20028;-85
2021/07/14 07:40:58;;;;;;;21.00;16.73;;;;;;;19.46;100.00;99790.19;4846296;29;20052;-85
2021/07/14 07:43:28;;;;;;;22.90;16.40;;;;;;;19.49;100.00;99777.69;4845757;29;20034;-84
2021/07/14 07:45:53;;;;;;;20.92;16.27;;;;;;;19.45;100.00;99781.44;4846728;29;20049;-85
2021/07/14 07:48:19;;;;;;;22.95;16.83;;;;;;;19.46;100.00;99792.81;4846117;29;20101;-84
2021/07/14 07:50:44;;;;;;;24.10;16.52;;;;;;;19.45;100.00;99786.69;4847488;29;20034;-84
2021/07/14 07:53:09;;;;;;;19.88;17.42;;;;;;;19.43;100.00;99787.78;4846247;29;20055;-85
2021/07/14 07:55:35;;;;;;;22.30;16.88;;;;;;;19.37;100.00;99782.94;4846945;29;20062;-84
2021/07/14 07:58:00;;;;;;;19.80;17.73;;;;;;;19.56;100.00;99783.34;4846270;29;20037;-84
2021/07/14 08:00:25;;;;;;;23.05;17.42;;;;;;;19.82;100.00;99781.59;4846046;29;20071;-85
2021/07/14 08:02:52;;;;;;;29.05;18.67;;;;;;;20.22;100.00;99774.38;4862699;29;20045;-85
2021/07/14 08:05:17;;;;;;;22.90;17.88;;;;;;;20.50;100.00;99782.94;4845833;29;20030;-85
2021/07/14 08:07:43;;;;;;;18.67;16.67;;;;;;;20.75;100.00;99783.84;4845598;29;20030;-85
2021/07/14 08:10:10;;;;;;;23.27;17.25;;;;;;;20.79;100.00;99787.94;4845581;29;20116;-85
2021/07/14 08:12:35;;;;;;;20.80;15.85;;;;;;;21.70;100.00;99780.22;4845722;29;20051;-85
2021/07/14 08:15:00;;;;;;;19.42;16.88;;;;;;;22.87;100.00;99790.31;4851130;29;20089;-85
2021/07/14 08:17:26;;;;;;;18.17;15.70;;;;;;;23.58;100.00;99787.13;4851877;29;20029;-85
2021/07/14 08:19:52;;;;;;;21.42;16.15;;;;;;;22.61;100.00;99795.09;4845765;29;20030;-85
2021/07/14 08:22:17;;;;;;;19.30;15.52;;;;;;;22.31;100.00;99789.63;4863478;29;20028;-84
2021/07/14 08:24:42;;;;;;;19.48;15.43;;;;;;;21.75;100.00;99799.19;4848363;29;20088;-84
2021/07/14 08:27:09;;;;;;;18.63;15.80;;;;;;;21.88;100.00;99801.72;4845257;29;20565;-85
2021/07/14 08:29:34;;;;;;;20.42;15.82;;;;;;;22.48;100.00;99803.19;4862138;29;20354;-85
2021/07/14 08:31:59;;;;;;;20.08;15.88;;;;;;;22.42;100.00;99801.03;4862043;29;20056;-85
2021/07/14 08:34:25;;;;;;;22.00;16.03;;;;;;;22.08;100.00;99810.75;4861851;29;20038;-85
2021/07/14 08:36:50;;;;;;;21.50;16.25;;;;;;;21.87;100.00;99809.78;4845277;29;20263;-85
2021/07/14 08:39:15;;;;;;;19.25;15.30;;;;;;;21.96;100.00;99809.06;4861710;29;20025;-84
2021/07/14 08:41:43;;;;;;;20.83;17.02;;;;;;;21.87;100.00;99813.25;4861902;29;20116;-84
2021/07/14 08:44:12;;;;;;;20.88;16.50;;;;;;;21.59;100.00;99817.16;4844937;29;20436;-85
2021/07/14 08:46:37;;;;;;;20.55;16.95;;;;;;;21.72;100.00;99817.06;4846001;29;20025;-85
2021/07/14 08:49:05;;;;;;;19.05;16.92;;;;;;;22.32;100.00;99815.91;4861748;29;20032;-84
2021/07/14 08:51:36;;;;;;;18.92;15.48;;;;;;;22.18;100.00;99813.53;4845145;29;20479;-84
2021/07/14 08:54:03;;;;;;;19.75;16.20;;;;;;;21.99;100.00;99814.09;4861457;29;20108;-85
2021/07/14 08:56:28;;;;;;;19.27;15.95;;;;;;;22.88;100.00;99818.47;4861437;29;20033;-85
2021/07/14 08:58:54;;;;;;;21.73;17.15;;;;;;;21.83;100.00;99827.66;4861683;29;20498;-85
2021/07/14 09:01:19;;;;;;;19.02;16.00;;;;;;;22.05;100.00;99819.75;4845213;29;20036;-85
2021/07/14 09:03:45;;;;;;;20.42;16.35;;;;;;;21.73;100.00;99824.03;4844447;29;20032;-85
2021/07/14 09:06:10;;;;;;;19.23;16.38;;;;;;;21.75;100.00;99825.59;4861657;29;20324;-85
2021/07/14 09:08:37;;;;;;;19.38;16.50;;;;;;;21.69;100.00;99828.69;4861585;29;20105;-86
2021/07/14 09:11:04;;;;;;;21.13;16.65;;;;;;;21.79;100.00;99826.19;4845123;29;20025;-84
2021/07/14 09:13:35;;;;;;;22.20;16.65;;;;;;;22.23;100.00;99821.94;4845033;29;20417;-84
2021/07/14 09:16:01;;;;;;;19.15;15.93;;;;;;;22.00;100.00;99827.19;4844745;29;20037;-84
2021/07/14 09:18:28;;;;;;;22.00;16.80;;;;;;;21.96;100.00;99833.66;4861241;29;20033;-85
2021/07/14 09:20:54;;;;;;;20.55;15.95;;;;;;;22.03;100.00;99828.75;4861369;29;20117;-85
2021/07/14 09:23:22;;;;;;;18.70;16.80;;;;;;;21.87;100.00;99841.47;4844464;29;20077;-84
2021/07/14 09:25:59;;;;;;;22.80;16.92;;;;;;;21.77;100.00;99831.59;4845036;29;20029;-85
2021/07/14 09:28:33;;;;;;;20.55;16.67;;;;;;;22.90;100.00;99827.09;4861425;29;20406;-85
2021/07/14 09:31:00;;;;;;;21.17;15.48;;;;;;;23.30;100.00;99823.84;4844537;29;20025;-85
2021/07/14 09:33:26;;;;;;;22.73;14.75;;;;;;;23.37;100.00;99825.03;4844477;29;20116;-84
2021/07/14 09:35:54;;;;;;;18.55;16.38;;;;;;;23.28;100.00;99824.97;4844618;29;20034;-85
2021/07/14 09:38:22;;;;;;;21.20;15.85;;;;;;;22.72;100.00;99813.59;4844413;29;20025;-85
2021/07/14 09:40:52;;;;;;;18.33;16.10;;;;;;;22.95;100.00;99811.75;4845273;29;20046;-85
2021/07/14 09:43:23;;;;;;;21.02;16.35;;;;;;;23.06;100.00;99808.22;4847464;29;20427;-85
2021/07/14 09:45:54;;;;;;;21.95;14.80;;;;;;;23.06;100.00;99804.72;4845588;29;20025;-85
2021/07/14 09:48:28;;;;;;;22.02;17.10;;;;;;;22.90;100.00;99802.47;4844574;29;20022;-84
2021/07/14 09:50:59;;;;;;;19.25;15.80;;;;;;;22.82;100.00;99804.91;4844513;29;20447;-84
2021/07/14 09:53:27;;;;;;;19.85;15.65;;;;;;;23.10;100.00;99796.41;4844281;29;20034;-85
2021/07/14 09:55:55;;;;;;;23.80;16.23;;;;;;;23.09;100.00;99794.75;4861089;29;20053;-85
2021/07/14 09:58:22;;;;;;;20.77;15.35;;;;;;;22.96;100.00;99796.69;4844081;29;20021;-84
2021/07/14 10:00:51;;;;;;;16.98;15.07;;;;;;;22.85;100.00;99802.84;4844378;29;20158;-84
2021/07/14 10:03:28;;;;;;;18.02;15.35;;;;;;;22.69;100.00;99803.25;4861008;29;20029;-84
2021/07/14 10:06:08;;;;;;;19.02;13.68;;;;;;;23.28;100.00;99803.81;4860805;29;20025;-84
2021/07/14 10:08:35;;;;;;;18.80;15.95;;;;;;;23.16;100.00;99803.84;4844587;29;20398;-85
2021/07/14 10:11:16;;;;;;;17.45;15.40;;;;;;;23.24;100.00;99813.78;4844615;29;20120;-85
2021/07/14 10:14:00;;;;;;;21.83;16.40;;;;;;;23.87;100.00;99804.06;4861058;29;20105;-84
2021/07/14 10:16:31;;;;;;;16.08;14.38;;;;;;;24.24;100.00;99808.00;4845626;29;20025;-84
2021/07/14 10:19:11;;;;;;;18.60;14.70;;;;;;;24.75;100.00;99805.22;4847972;29;20029;-84
2021/07/14 10:21:49;;;;;;;17.02;14.50;;;;;;;25.46;100.00;99804.97;4847857;29;20566;-84
2021/07/14 10:24:17;;;;;;;15.90;12.55;;;;;;;26.04;99.28;99805.81;4848605;29;20530;-85
2021/07/14 10:26:47;;;;;;;15.75;12.98;;;;;;;25.07;100.00;99803.28;4864721;29;20521;-84
2021/07/14 10:29:14;;;;;;;16.60;12.65;;;;;;;24.74;100.00;99811.47;4847958;29;20101;-84
2021/07/14 10:31:39;;;;;;;17.70;13.35;;;;;;;24.51;100.00;99810.91;4847728;29;20028;-84
2021/07/14 10:34:06;;;;;;;17.65;14.40;;;;;;;24.25;100.00;99807.84;4847495;29;20034;-84
2021/07/14 10:36:34;;;;;;;18.23;13.77;;;;;;;24.64;100.00;99809.81;4848253;29;20065;-84
2021/07/14 10:39:09;;;;;;;15.30;13.63;;;;;;;25.91;100.00;99801.66;4864079;29;20034;-84
2021/07/14 10:41:35;;;;;;;18.77;12.75;;;;;;;25.69;96.49;99802.81;4864001;29;20021;-84
2021/07/14 10:44:01;;;;;;;17.30;12.70;;;;;;;26.24;96.82;99798.59;4846953;29;20065;-84
2021/07/14 10:46:29;;;;;;;14.50;12.50;;;;;;;26.98;90.38;99794.94;4847072;29;20060;-84
2021/07/14 10:48:57;;;;;;;15.00;12.38;;;;;;;25.91;95.97;99795.50;4847870;29;20405;-84
2021/07/14 10:51:23;;;;;;;17.25;13.35;;;;;;;26.51;91.85;99787.13;4847337;29;20510;-85
2021/07/14 10:53:53;;;;;;;16.75;11.90;;;;;;;27.32;89.57;99789.75;4855762;29;20097;-85
2021/07/14 10:56:20;;;;;;;17.50;11.50;;;;;;;26.15;97.38;99787.84;4858528;29;20026;-86
2021/07/14 10:58:47;;;;;;;15.52;10.10;;;;;;;27.92;84.77;99775.69;4859427;29;20029;-84
2021/07/14 11:01:33;;;;;;;15.48;10.63;;;;;;;26.15;93.66;99787.03;4871617;29;20475;-84
2021/07/14 11:03:58;;;;;;;14.50;9.00;;;;;;;27.56;85.66;99797.09;4846332;29;20029;-84
2021/07/14 11:06:28;;;;;;;11.32;8.82;;;;;;;28.02;79.99;99791.53;4863378;29;20025;-84
2021/07/14 11:08:54;;;;;;;11.38;9.35;;;;;;;26.19;88.53;99799.03;4846777;29;20376;-84
2021/07/14 11:11:21;;;;;;;11.73;9.52;;;;;;;25.83;91.15;99798.91;4846591;29;20036;-84
2021/07/14 11:14:04;;;;;;;11.43;9.40;;;;;;;26.81;85.65;99783.28;4846666;29;20116;-84
2021/07/14 11:16:32;;;;;;;10.60;8.60;;;;;;;27.36;84.10;99787.63;4846753;29;20021;-85
2021/07/14 11:19:05;;;;;;;10.45;7.15;;;;;;;25.63;90.08;99782.13;4846429;29;20893;-84
2021/07/14 11:21:53;;;;;;;12.60;8.95;;;;;;;25.42;92.09;99779.66;4846397;29;20026;-84
2021/07/14 11:24:39;;;;;;;13.98;8.20;;;;;;;26.17;89.54;99785.91;4846411;29;20029;-83
2021/07/14 11:27:26;;;;;;;9.50;7.95;;;;;;;27.75;83.34;99772.91;4846316;29;20045;-84
2021/07/14 11:30:16;;;;;;;12.02;8.57;;;;;;;27.05;87.29;99775.53;4862862;29;20053;-83
2021/07/14 11:32:41;;;;;;;11.65;8.07;;;;;;;28.49;80.14;99762.59;4863087;29;20033;-84
2021/07/14 11:35:26;;;;;;;11.47;8.07;;;;;;;27.50;79.73;99763.09;4846147;29;20037;-84
2021/07/14 11:37:51;;;;;;;11.60;8.60;;;;;;;27.94;76.45;99749.72;4846201;29;20335;-84